createdAt,value
2023-02-26T00:00:45.215Z,-0.70
2023-02-26T00:03:11.679Z,-0.70
2023-02-26T00:05:38.237Z,-0.70
2023-02-26T00:08:05.926Z,-0.80
2023-02-26T00:10:32.529Z,-0.80
2023-02-26T00:12:59.142Z,-0.80
2023-02-26T00:15:26.757Z,-0.80
2023-02-26T00:17:53.779Z,-0.80
2023-02-26T00:20:20.294Z,-0.80
2023-02-26T00:22:46.849Z,-0.80
2023-02-26T00:25:13.662Z,-0.80
2023-02-26T00:27:40.265Z,-0.80
2023-02-26T00:30:06.807Z,-0.80
2023-02-26T00:32:33.380Z,-0.90
2023-02-26T00:34:59.963Z,-0.90
2023-02-26T00:37:26.489Z,-0.90
2023-02-26T00:39:52.963Z,-0.90
2023-02-26T00:42:19.473Z,-0.90
2023-02-26T00:44:46.037Z,-1.00
2023-02-26T00:47:12.820Z,-1.00
2023-02-26T00:49:39.309Z,-1.10
2023-02-26T00:52:05.797Z,-1.10
2023-02-26T00:54:32.315Z,-1.10
2023-02-26T00:56:58.910Z,-1.10
2023-02-26T00:59:25.416Z,-1.10
2023-02-26T01:01:51.940Z,-1.10
2023-02-26T01:04:18.462Z,-1.20
2023-02-26T01:06:44.942Z,-1.20
2023-02-26T01:09:11.423Z,-1.30
2023-02-26T01:11:37.932Z,-1.30
2023-02-26T01:14:04.438Z,-1.30
2023-02-26T01:16:31.431Z,-1.30
2023-02-26T01:18:57.909Z,-1.20
2023-02-26T01:21:24.399Z,-1.10
2023-02-26T01:23:51.001Z,-1.10
2023-02-26T01:26:17.590Z,-1.10
2023-02-26T01:28:44.115Z,-1.10
2023-02-26T01:31:10.652Z,-1.10
2023-02-26T01:33:37.169Z,-1.20
2023-02-26T01:36:03.732Z,-1.20
2023-02-26T01:38:31.228Z,-1.20
2023-02-26T01:40:58.121Z,-1.20
2023-02-26T01:43:24.641Z,-1.20
2023-02-26T01:45:51.159Z,-1.20
2023-02-26T01:48:17.847Z,-1.30
2023-02-26T01:50:44.405Z,-1.40
2023-02-26T01:53:10.917Z,-1.40
2023-02-26T01:55:37.462Z,-1.40
2023-02-26T01:58:04.195Z,-1.50
2023-02-26T02:00:30.805Z,-1.50
2023-02-26T02:02:57.423Z,-1.50
2023-02-26T02:05:24.002Z,-1.50
2023-02-26T02:07:50.498Z,-1.60
2023-02-26T02:10:17.025Z,-1.60
2023-02-26T02:12:43.606Z,-1.70
2023-02-26T02:15:10.117Z,-1.70
2023-02-26T02:17:36.609Z,-1.80
2023-02-26T02:20:04.782Z,-1.80
2023-02-26T02:22:31.316Z,-1.80
2023-02-26T02:24:57.861Z,-1.80
2023-02-26T02:27:25.400Z,-1.80
2023-02-26T02:29:51.947Z,-1.80
2023-02-26T02:32:18.589Z,-1.90
2023-02-26T02:34:45.108Z,-1.90
2023-02-26T02:37:11.606Z,-1.90
2023-02-26T02:39:38.377Z,-1.80
2023-02-26T02:42:04.856Z,-1.80
2023-02-26T02:44:31.342Z,-1.80
2023-02-26T02:46:57.919Z,-1.70
2023-02-26T02:49:24.483Z,-1.70
2023-02-26T02:51:50.993Z,-1.70
2023-02-26T02:54:17.551Z,-1.70
2023-02-26T02:56:44.108Z,-1.70
2023-02-26T02:59:10.663Z,-1.70
2023-02-26T03:01:37.267Z,-1.80
2023-02-26T03:04:03.975Z,-1.80
2023-02-26T03:06:30.471Z,-1.70
2023-02-26T03:08:56.941Z,-1.70
2023-02-26T03:11:23.479Z,-1.80
2023-02-26T03:13:50.001Z,-1.80
2023-02-26T03:16:16.529Z,-1.90
2023-02-26T03:18:43.108Z,-2.00
2023-02-26T03:21:09.654Z,-2.10
2023-02-26T03:23:36.124Z,-2.20
2023-02-26T03:26:02.685Z,-2.20
2023-02-26T03:28:29.187Z,-2.20
2023-02-26T03:30:55.716Z,-2.30
2023-02-26T03:33:22.216Z,-2.30
2023-02-26T03:35:48.737Z,-2.40
2023-02-26T03:38:15.260Z,-2.40
2023-02-26T03:40:41.782Z,-2.40
2023-02-26T03:43:08.278Z,-2.50
2023-02-26T03:45:34.790Z,-2.60
2023-02-26T03:48:01.312Z,-2.50
2023-02-26T03:50:27.856Z,-2.50
2023-02-26T03:52:54.336Z,-2.50
2023-02-26T03:55:20.862Z,-2.50
2023-02-26T03:57:47.505Z,-2.50
2023-02-26T04:00:14.253Z,-2.40
2023-02-26T04:02:40.809Z,-2.40
2023-02-26T04:05:07.338Z,-2.40
2023-02-26T04:07:33.815Z,-2.30
2023-02-26T04:10:00.284Z,-2.20
2023-02-26T04:12:26.909Z,-2.10
2023-02-26T04:14:53.410Z,-2.10
2023-02-26T04:17:19.906Z,-2.10
2023-02-26T04:19:46.404Z,-2.10
2023-02-26T04:22:12.958Z,-2.00
2023-02-26T04:24:39.439Z,-2.00
2023-02-26T04:27:06.103Z,-1.90
2023-02-26T04:29:32.608Z,-2.00
2023-02-26T04:31:59.363Z,-1.90
2023-02-26T04:34:25.976Z,-2.00
2023-02-26T04:36:52.511Z,-2.00
2023-02-26T04:39:19.345Z,-2.00
2023-02-26T04:41:46.114Z,-2.10
2023-02-26T04:44:12.630Z,-2.00
2023-02-26T04:46:39.258Z,-2.10
2023-02-26T04:49:05.839Z,-2.00
2023-02-26T04:51:32.403Z,-2.10
2023-02-26T04:53:58.896Z,-2.20
2023-02-26T04:56:25.787Z,-2.20
2023-02-26T04:58:52.435Z,-2.30
2023-02-26T05:01:18.940Z,-2.30
2023-02-26T05:03:45.491Z,-2.40
2023-02-26T05:06:12.077Z,-2.40
2023-02-26T05:08:42.139Z,-2.40
2023-02-26T05:11:08.642Z,-2.40
2023-02-26T05:13:35.126Z,-2.40
2023-02-26T05:16:01.671Z,-2.50
2023-02-26T05:18:28.224Z,-2.50
2023-02-26T05:20:54.810Z,-2.50
2023-02-26T05:23:21.369Z,-2.50
2023-02-26T05:25:47.897Z,-2.50
2023-02-26T05:28:14.413Z,-2.50
2023-02-26T05:30:40.950Z,-2.40
2023-02-26T05:33:07.449Z,-2.40
2023-02-26T05:35:33.945Z,-2.40
2023-02-26T05:38:00.453Z,-2.40
2023-02-26T05:40:26.981Z,-2.40
2023-02-26T05:42:53.485Z,-2.30
2023-02-26T05:45:19.994Z,-2.30
2023-02-26T05:47:46.494Z,-2.30
2023-02-26T05:50:12.981Z,-2.20
2023-02-26T05:52:39.547Z,-2.20
2023-02-26T05:55:06.088Z,-2.20
2023-02-26T05:57:32.654Z,-2.30
2023-02-26T05:59:59.201Z,-2.20
2023-02-26T06:02:25.706Z,-2.30
2023-02-26T06:04:52.191Z,-2.20
2023-02-26T06:07:18.697Z,-2.30
2023-02-26T06:09:45.186Z,-2.30
2023-02-26T06:12:11.641Z,-2.30
2023-02-26T06:14:38.183Z,-2.40
2023-02-26T06:17:04.710Z,-2.40
2023-02-26T06:19:31.205Z,-2.40
2023-02-26T06:21:57.705Z,-2.50
2023-02-26T06:24:24.199Z,-2.50
2023-02-26T06:26:50.684Z,-2.50
2023-02-26T06:29:18.736Z,-2.50
2023-02-26T06:31:45.560Z,-2.50
2023-02-26T06:34:12.156Z,-2.50
2023-02-26T06:36:38.703Z,-2.50
2023-02-26T06:39:05.178Z,-2.50
2023-02-26T06:41:31.704Z,-2.60
2023-02-26T06:43:58.202Z,-2.60
2023-02-26T06:46:24.986Z,-2.60
2023-02-26T06:48:51.634Z,-2.60
2023-02-26T06:51:18.120Z,-2.60
2023-02-26T06:53:44.648Z,-2.60
2023-02-26T06:56:11.161Z,-2.60
2023-02-26T06:58:37.665Z,-2.60
2023-02-26T07:01:04.273Z,-2.50
2023-02-26T07:03:31.201Z,-2.50
2023-02-26T07:06:03.511Z,-2.50
2023-02-26T07:08:36.506Z,-2.40
2023-02-26T07:11:03.035Z,-2.50
2023-02-26T07:13:29.617Z,-2.50
2023-02-26T07:15:56.109Z,-2.50
2023-02-26T07:18:22.618Z,-2.40
2023-02-26T07:20:49.069Z,-2.40
2023-02-26T07:23:15.545Z,-2.40
2023-02-26T07:25:42.034Z,-2.40
2023-02-26T07:28:08.521Z,-2.40
2023-02-26T07:30:35.217Z,-2.40
2023-02-26T07:33:01.890Z,-2.30
2023-02-26T07:35:28.474Z,-2.30
2023-02-26T07:37:54.987Z,-2.30
2023-02-26T07:40:21.469Z,-2.20
2023-02-26T07:42:48.027Z,-2.30
2023-02-26T07:45:17.553Z,-2.30
2023-02-26T07:47:44.031Z,-2.30
2023-02-26T07:50:10.699Z,-2.30
2023-02-26T07:52:37.385Z,-2.30
2023-02-26T07:55:03.923Z,-2.20
2023-02-26T07:57:30.526Z,-2.20
2023-02-26T07:59:57.052Z,-2.20
2023-02-26T08:02:23.535Z,-2.10
2023-02-26T08:04:50.051Z,-2.20
2023-02-26T08:07:18.159Z,-2.10
2023-02-26T08:09:44.665Z,-2.10
2023-02-26T08:12:11.177Z,-2.00
2023-02-26T08:14:37.744Z,-1.90
2023-02-26T08:17:04.224Z,-1.80
2023-02-26T08:19:30.938Z,-1.70
2023-02-26T08:21:57.485Z,-1.60
2023-02-26T08:24:23.980Z,-1.50
2023-02-26T08:26:50.690Z,-1.40
2023-02-26T08:29:17.163Z,-1.40
2023-02-26T08:31:43.736Z,-1.30
2023-02-26T08:34:10.289Z,-1.20
2023-02-26T08:36:36.931Z,-1.10
2023-02-26T08:39:03.403Z,-1.00
2023-02-26T08:41:32.207Z,-1.00
2023-02-26T08:43:58.801Z,-0.90
2023-02-26T08:46:25.705Z,-0.80
2023-02-26T08:48:53.126Z,-0.80
2023-02-26T08:51:19.620Z,-0.70
2023-02-26T08:53:47.311Z,-0.70
2023-02-26T08:56:16.165Z,-0.70
2023-02-26T08:58:42.697Z,-0.70
2023-02-26T09:01:09.220Z,-0.60
2023-02-26T09:03:35.792Z,-0.60
2023-02-26T09:06:02.391Z,-0.50
2023-02-26T09:08:29.081Z,-0.40
2023-02-26T09:10:55.654Z,-0.30
2023-02-26T09:13:22.156Z,-0.20
2023-02-26T09:15:48.653Z,-0.10
2023-02-26T09:18:15.555Z,0.00
2023-02-26T09:20:42.523Z,0.00
2023-02-26T09:23:09.071Z,-0.10
2023-02-26T09:25:35.562Z,0.00
2023-02-26T09:28:02.202Z,0.00
2023-02-26T09:30:28.808Z,0.10
2023-02-26T09:32:55.369Z,0.20
2023-02-26T09:35:22.377Z,0.30
2023-02-26T09:37:48.934Z,0.40
2023-02-26T09:40:15.473Z,0.40
2023-02-26T09:42:41.941Z,0.50
2023-02-26T09:45:08.445Z,0.50
2023-02-26T09:47:39.337Z,0.50
2023-02-26T09:50:07.157Z,0.60
2023-02-26T09:52:33.651Z,0.60
2023-02-26T09:55:00.140Z,0.60
2023-02-26T09:57:27.073Z,0.60
2023-02-26T09:59:53.584Z,0.70
2023-02-26T10:02:20.087Z,0.70
2023-02-26T10:04:46.635Z,0.80
2023-02-26T10:07:13.202Z,1.00
2023-02-26T10:09:39.789Z,1.10
2023-02-26T10:12:06.293Z,1.30
2023-02-26T10:14:32.784Z,1.40
2023-02-26T10:16:59.299Z,1.50
2023-02-26T10:19:25.814Z,1.50
2023-02-26T10:21:52.489Z,1.50
2023-02-26T10:24:19.258Z,1.50
2023-02-26T10:26:45.781Z,1.40
2023-02-26T10:29:12.271Z,1.30
2023-02-26T10:31:38.848Z,1.20
2023-02-26T10:34:05.556Z,1.10
2023-02-26T10:36:32.213Z,1.10
2023-02-26T10:38:59.042Z,1.00
2023-02-26T10:41:25.883Z,0.90
2023-02-26T10:43:52.544Z,0.90
2023-02-26T10:46:19.112Z,0.90
2023-02-26T10:48:45.610Z,1.00
2023-02-26T10:51:12.259Z,1.10
2023-02-26T10:53:40.642Z,1.20
2023-02-26T10:56:07.241Z,1.20
2023-02-26T10:58:33.742Z,1.30
2023-02-26T11:01:00.810Z,1.40
2023-02-26T11:03:27.612Z,1.40
2023-02-26T11:05:54.158Z,1.50
2023-02-26T11:08:20.654Z,1.40
2023-02-26T11:10:47.198Z,1.50
2023-02-26T11:13:13.779Z,1.60
2023-02-26T11:15:40.293Z,1.60
2023-02-26T11:18:06.834Z,1.70
2023-02-26T11:20:33.460Z,1.70
2023-02-26T11:23:00.621Z,1.80
2023-02-26T11:25:27.114Z,1.80
2023-02-26T11:27:53.621Z,1.80
2023-02-26T11:30:20.193Z,1.80
2023-02-26T11:32:46.777Z,1.80
2023-02-26T11:35:13.318Z,1.80
2023-02-26T11:37:39.873Z,1.70
2023-02-26T11:40:10.799Z,1.70
2023-02-26T11:42:37.320Z,1.70
2023-02-26T11:45:03.836Z,1.80
2023-02-26T11:47:30.354Z,2.00
2023-02-26T11:49:56.864Z,2.20
2023-02-26T11:52:23.411Z,2.30
2023-02-26T11:54:50.034Z,2.50
2023-02-26T11:57:16.572Z,2.90
2023-02-26T11:59:43.092Z,3.10
2023-02-26T12:02:09.564Z,3.20
2023-02-26T12:04:36.057Z,3.40
2023-02-26T12:07:02.544Z,3.50
2023-02-26T12:09:29.463Z,3.60
2023-02-26T12:11:56.081Z,3.50
2023-02-26T12:14:22.599Z,3.60
2023-02-26T12:16:49.629Z,3.80
2023-02-26T12:19:16.113Z,3.90
2023-02-26T12:21:42.585Z,4.20
2023-02-26T12:24:09.172Z,4.40
2023-02-26T12:26:35.657Z,4.50
2023-02-26T12:29:02.166Z,4.60
2023-02-26T12:31:29.173Z,4.60
2023-02-26T12:33:56.074Z,4.40
2023-02-26T12:36:23.143Z,4.10
2023-02-26T12:38:49.622Z,3.90
2023-02-26T12:41:16.126Z,3.90
2023-02-26T12:43:42.674Z,4.00
2023-02-26T12:46:09.282Z,4.20
2023-02-26T12:48:35.768Z,4.40
2023-02-26T12:51:02.277Z,4.60
2023-02-26T12:53:28.911Z,4.80
2023-02-26T12:55:55.401Z,5.00
2023-02-26T12:58:21.956Z,5.00
2023-02-26T13:00:48.484Z,5.00
2023-02-26T13:03:15.011Z,4.80
2023-02-26T13:05:41.745Z,4.70
2023-02-26T13:08:09.166Z,4.80
2023-02-26T13:10:35.678Z,4.80
2023-02-26T13:13:02.203Z,4.90
2023-02-26T13:15:28.715Z,5.10
2023-02-26T13:17:55.455Z,5.20
2023-02-26T13:20:21.964Z,5.00
2023-02-26T13:22:48.439Z,4.80
2023-02-26T13:25:14.954Z,4.50
2023-02-26T13:27:41.442Z,4.20
2023-02-26T13:30:08.092Z,4.10
2023-02-26T13:32:35.152Z,4.20
2023-02-26T13:35:01.818Z,4.10
2023-02-26T13:37:28.333Z,3.80
2023-02-26T13:39:54.800Z,3.90
2023-02-26T13:42:21.364Z,3.90
2023-02-26T13:44:47.904Z,4.10
2023-02-26T13:47:16.891Z,4.40
2023-02-26T13:49:45.849Z,4.60
2023-02-26T13:52:12.333Z,4.70
2023-02-26T13:54:38.850Z,4.60
2023-02-26T13:57:05.332Z,4.40
2023-02-26T13:59:31.866Z,4.10
2023-02-26T14:01:58.381Z,3.90
2023-02-26T14:04:25.107Z,3.70
2023-02-26T14:06:51.695Z,3.70
2023-02-26T14:09:18.199Z,3.80
2023-02-26T14:11:44.754Z,3.80
2023-02-26T14:14:11.336Z,3.70
2023-02-26T14:16:37.847Z,3.60
2023-02-26T14:19:04.420Z,3.50
2023-02-26T14:21:30.887Z,3.40
2023-02-26T14:23:57.754Z,3.30
2023-02-26T14:26:24.711Z,3.20
2023-02-26T14:28:55.715Z,3.20
2023-02-26T14:31:22.634Z,3.30
2023-02-26T14:33:49.252Z,3.50
2023-02-26T14:36:15.762Z,3.60
2023-02-26T14:38:42.590Z,3.60
2023-02-26T14:41:09.056Z,3.60
2023-02-26T14:43:35.936Z,3.50
2023-02-26T14:46:02.507Z,3.40
2023-02-26T14:48:30.104Z,3.50
2023-02-26T14:50:56.743Z,3.50
2023-02-26T14:53:23.268Z,3.60
2023-02-26T14:55:49.794Z,3.60
2023-02-26T14:58:16.352Z,3.60
2023-02-26T15:00:42.850Z,3.50
2023-02-26T15:03:09.368Z,3.40
2023-02-26T15:05:35.933Z,3.40
2023-02-26T15:08:02.525Z,3.20
2023-02-26T15:10:28.995Z,3.20
2023-02-26T15:12:55.620Z,3.20
2023-02-26T15:15:22.119Z,3.30
2023-02-26T15:17:48.855Z,3.20
2023-02-26T15:20:15.396Z,3.20
2023-02-26T15:22:41.918Z,3.10
2023-02-26T15:25:08.433Z,3.10
2023-02-26T15:27:36.450Z,3.00
2023-02-26T15:30:02.954Z,3.00
2023-02-26T15:32:29.862Z,2.90
2023-02-26T15:34:56.469Z,2.90
2023-02-26T15:37:22.965Z,2.90
2023-02-26T15:39:49.617Z,2.90
2023-02-26T15:42:16.201Z,2.90
2023-02-26T15:44:55.118Z,3.00
2023-02-26T15:47:23.248Z,3.00
2023-02-26T15:49:49.760Z,2.90
2023-02-26T15:52:16.250Z,2.90
2023-02-26T15:54:42.839Z,2.80
2023-02-26T15:57:09.577Z,2.70
2023-02-26T15:59:41.619Z,2.60
2023-02-26T16:02:08.140Z,2.50
2023-02-26T16:04:34.766Z,2.40
2023-02-26T16:07:02.571Z,2.30
2023-02-26T16:09:29.199Z,2.30
2023-02-26T16:11:55.711Z,2.20
2023-02-26T16:14:22.355Z,2.20
2023-02-26T16:16:48.863Z,2.30
2023-02-26T16:19:15.392Z,2.30
2023-02-26T16:21:41.889Z,2.20
2023-02-26T16:24:08.472Z,2.20
2023-02-26T16:26:35.098Z,2.10
2023-02-26T16:29:01.620Z,2.00
2023-02-26T16:31:28.512Z,1.90
2023-02-26T16:33:55.063Z,1.90
2023-02-26T16:36:24.710Z,1.80
2023-02-26T16:38:51.407Z,1.70
2023-02-26T16:41:17.898Z,1.60
2023-02-26T16:43:44.448Z,1.60
2023-02-26T16:46:10.967Z,1.50
2023-02-26T16:48:37.849Z,1.40
2023-02-26T16:51:04.337Z,1.30
2023-02-26T16:53:30.836Z,1.30
2023-02-26T16:55:57.525Z,1.20
2023-02-26T16:58:24.051Z,1.20
2023-02-26T17:00:50.563Z,1.10
2023-02-26T17:03:17.085Z,1.10
2023-02-26T17:05:43.620Z,1.10
2023-02-26T17:08:10.506Z,1.00
2023-02-26T17:10:37.089Z,1.00
2023-02-26T17:13:04.761Z,1.00
2023-02-26T17:15:31.304Z,0.90
2023-02-26T17:17:58.880Z,0.80
2023-02-26T17:20:25.429Z,0.80
2023-02-26T17:22:52.065Z,0.70
2023-02-26T17:25:18.605Z,0.70
2023-02-26T17:27:45.146Z,0.60
2023-02-26T17:30:11.722Z,0.60
2023-02-26T17:32:38.535Z,0.50
2023-02-26T17:35:06.187Z,0.40
2023-02-26T17:37:33.691Z,0.40
2023-02-26T17:40:00.229Z,0.40
2023-02-26T17:42:26.745Z,0.40
2023-02-26T17:44:55.031Z,0.40
2023-02-26T17:47:21.586Z,0.30
2023-02-26T17:49:48.050Z,0.30
2023-02-26T17:52:14.711Z,0.30
2023-02-26T17:54:41.192Z,0.20
2023-02-26T17:57:07.808Z,0.20
2023-02-26T17:59:34.531Z,0.10
2023-02-26T18:02:01.160Z,0.00
2023-02-26T18:04:27.819Z,0.00
2023-02-26T18:06:54.495Z,-0.10
2023-02-26T18:09:21.024Z,-0.10
2023-02-26T18:11:47.553Z,-0.10
2023-02-26T18:14:14.025Z,-0.10
2023-02-26T18:16:40.647Z,-0.10
2023-02-26T18:19:07.204Z,-0.10
2023-02-26T18:21:33.733Z,-0.20
2023-02-26T18:24:01.092Z,-0.20
2023-02-26T18:26:29.052Z,-0.20
2023-02-26T18:28:55.803Z,-0.20
2023-02-26T18:31:22.384Z,-0.20
2023-02-26T18:33:49.005Z,-0.20
2023-02-26T18:36:15.486Z,-0.20
2023-02-26T18:38:44.339Z,-0.20
2023-02-26T18:41:10.863Z,-0.20
2023-02-26T18:43:37.423Z,-0.10
2023-02-26T18:46:04.033Z,-0.10
2023-02-26T18:48:30.732Z,0.00
2023-02-26T18:50:57.270Z,0.00
2023-02-26T18:53:23.994Z,0.00
2023-02-26T18:55:50.970Z,0.10
2023-02-26T18:58:17.726Z,0.10
2023-02-26T19:00:44.235Z,0.10
2023-02-26T19:03:10.799Z,0.10
2023-02-26T19:05:37.414Z,0.20
2023-02-26T19:08:03.948Z,0.20
2023-02-26T19:10:31.665Z,0.20
2023-02-26T19:12:58.223Z,0.20
2023-02-26T19:15:24.874Z,0.20
2023-02-26T19:17:51.351Z,0.20
2023-02-26T19:20:17.867Z,0.20
2023-02-26T19:22:46.374Z,0.20
2023-02-26T19:25:12.849Z,0.30
2023-02-26T19:27:39.622Z,0.20
2023-02-26T19:30:06.096Z,0.20
2023-02-26T19:32:32.735Z,0.10
2023-02-26T19:34:59.560Z,0.10
2023-02-26T19:37:26.084Z,0.10
2023-02-26T19:39:52.638Z,0.00
2023-02-26T19:42:19.307Z,0.00
2023-02-26T19:44:45.846Z,0.00
2023-02-26T19:47:12.434Z,0.00
2023-02-26T19:49:38.921Z,0.10
2023-02-26T19:52:08.103Z,0.10
2023-02-26T19:54:34.642Z,0.10
2023-02-26T19:57:01.254Z,0.00
2023-02-26T19:59:28.050Z,0.10
2023-02-26T20:01:54.574Z,0.00
2023-02-26T20:04:21.069Z,0.00
2023-02-26T20:06:47.608Z,-0.10
2023-02-26T20:09:14.694Z,-0.10
2023-02-26T20:11:41.398Z,-0.10
2023-02-26T20:14:07.972Z,-0.10
2023-02-26T20:16:34.510Z,-0.20
2023-02-26T20:19:01.095Z,-0.20
2023-02-26T20:21:27.921Z,-0.20
2023-02-26T20:23:55.360Z,-0.20
2023-02-26T20:26:21.888Z,-0.30
2023-02-26T20:28:48.369Z,-0.30
2023-02-26T20:31:14.981Z,-0.30
2023-02-26T20:33:41.643Z,-0.40
2023-02-26T20:36:08.240Z,-0.40
2023-02-26T20:38:35.077Z,-0.40
2023-02-26T20:41:01.633Z,-0.40
2023-02-26T20:43:28.096Z,-0.50
2023-02-26T20:45:56.140Z,-0.50
2023-02-26T20:48:22.697Z,-0.50
2023-02-26T20:50:49.745Z,-0.50
2023-02-26T20:53:16.274Z,-0.50
2023-02-26T20:55:42.782Z,-0.60
2023-02-26T20:58:09.374Z,-0.60
2023-02-26T21:00:35.902Z,-0.60
2023-02-26T21:03:02.437Z,-0.60
2023-02-26T21:05:28.948Z,-0.70
2023-02-26T21:07:55.500Z,-0.70
2023-02-26T21:10:22.006Z,-0.70
2023-02-26T21:12:48.862Z,-0.70
2023-02-26T21:15:15.669Z,-0.70
2023-02-26T21:17:42.209Z,-0.70
2023-02-26T21:20:09.916Z,-0.70
2023-02-26T21:22:36.503Z,-0.70
2023-02-26T21:25:03.151Z,-0.80
2023-02-26T21:27:29.647Z,-0.80
2023-02-26T21:29:56.173Z,-0.80
2023-02-26T21:32:22.749Z,-0.90
2023-02-26T21:34:49.441Z,-0.90
2023-02-26T21:37:16.000Z,-0.90
2023-02-26T21:39:42.725Z,-0.90
2023-02-26T21:42:09.309Z,-1.00
2023-02-26T21:44:35.859Z,-1.00
2023-02-26T21:47:02.409Z,-1.10
2023-02-26T21:49:30.825Z,-1.10
2023-02-26T21:51:57.331Z,-1.10
2023-02-26T21:54:23.841Z,-1.10
2023-02-26T21:56:50.344Z,-1.10
2023-02-26T21:59:16.824Z,-1.20
2023-02-26T22:01:43.341Z,-1.20
2023-02-26T22:04:09.868Z,-1.20
2023-02-26T22:06:36.416Z,-1.20
2023-02-26T22:09:03.158Z,-1.30
2023-02-26T22:11:29.684Z,-1.30
2023-02-26T22:13:56.209Z,-1.40
2023-02-26T22:16:22.790Z,-1.40
2023-02-26T22:18:49.452Z,-1.30
2023-02-26T22:21:15.961Z,-1.30
2023-02-26T22:23:42.441Z,-1.30
2023-02-26T22:26:09.057Z,-1.30
2023-02-26T22:28:35.621Z,-1.30
2023-02-26T22:31:02.209Z,-1.30
2023-02-26T22:33:28.748Z,-1.40
2023-02-26T22:35:55.377Z,-1.40
2023-02-26T22:38:21.896Z,-1.30
2023-02-26T22:40:48.453Z,-1.40
2023-02-26T22:43:15.011Z,-1.30
2023-02-26T22:45:41.512Z,-1.30
2023-02-26T22:48:08.225Z,-1.40
2023-02-26T22:50:34.780Z,-1.40
2023-02-26T22:53:01.239Z,-1.40
2023-02-26T22:55:28.024Z,-1.40
2023-02-26T22:57:54.515Z,-1.50
2023-02-26T23:00:21.067Z,-1.50
2023-02-26T23:02:47.811Z,-1.50
2023-02-26T23:05:14.401Z,-1.50
2023-02-26T23:07:44.059Z,-1.50
2023-02-26T23:10:10.616Z,-1.50
2023-02-26T23:12:37.456Z,-1.60
2023-02-26T23:15:04.045Z,-1.60
2023-02-26T23:17:30.546Z,-1.60
2023-02-26T23:19:57.063Z,-1.60
2023-02-26T23:22:23.630Z,-1.60
2023-02-26T23:24:50.173Z,-1.70
2023-02-26T23:27:16.686Z,-1.70
2023-02-26T23:29:43.812Z,-1.70
2023-02-26T23:32:10.469Z,-1.70
2023-02-26T23:34:36.982Z,-1.70
2023-02-26T23:37:03.541Z,-1.70
2023-02-26T23:39:30.077Z,-1.80
2023-02-26T23:41:56.627Z,-1.80
2023-02-26T23:44:23.134Z,-1.80
2023-02-26T23:46:49.642Z,-1.80
2023-02-26T23:49:16.144Z,-1.80
2023-02-26T23:51:42.802Z,-1.80
2023-02-26T23:54:09.292Z,-1.80
2023-02-26T23:56:35.777Z,-1.80
2023-02-26T23:59:02.352Z,-1.90
